sensor_id;sensor_type;location;lat;lon;timestamp;temperature;humidity
9542;DHT22;4809;48.224;8.572;2023-04-22T00:01:41;9.40;99.90
9542;DHT22;4809;48.224;8.572;2023-04-22T00:04:06;9.40;99.90
9542;DHT22;4809;48.224;8.572;2023-04-22T00:06:33;9.40;99.90
9542;DHT22;4809;48.224;8.572;2023-04-22T00:08:59;9.30;99.90
9542;DHT22;4809;48.224;8.572;2023-04-22T00:11:24;9.30;99.90
9542;DHT22;4809;48.224;8.572;2023-04-22T00:13:50;9.30;99.90
9542;DHT22;4809;48.224;8.572;2023-04-22T00:16:19;9.20;99.90
9542;DHT22;4809;48.224;8.572;2023-04-22T00:18:45;9.20;99.90
9542;DHT22;4809;48.224;8.572;2023-04-22T00:21:11;9.20;99.90
9542;DHT22;4809;48.224;8.572;2023-04-22T00:23:37;9.20;99.90
9542;DHT22;4809;48.224;8.572;2023-04-22T00:26:03;9.10;99.90
9542;DHT22;4809;48.224;8.572;2023-04-22T00:28:28;9.10;99.90
9542;DHT22;4809;48.224;8.572;2023-04-22T00:30:54;9.00;99.90
9542;DHT22;4809;48.224;8.572;2023-04-22T00:33:20;9.00;99.90
9542;DHT22;4809;48.224;8.572;2023-04-22T00:35:45;8.90;99.90
9542;DHT22;4809;48.224;8.572;2023-04-22T00:38:11;8.90;99.90
9542;DHT22;4809;48.224;8.572;2023-04-22T00:40:37;8.90;99.90
9542;DHT22;4809;48.224;8.572;2023-04-22T00:43:03;8.90;99.90
9542;DHT22;4809;48.224;8.572;2023-04-22T00:45:30;8.80;99.90
9542;DHT22;4809;48.224;8.572;2023-04-22T00:47:56;8.80;99.90
9542;DHT22;4809;48.224;8.572;2023-04-22T00:50:22;8.80;99.90
9542;DHT22;4809;48.224;8.572;2023-04-22T00:52:48;8.80;99.90
9542;DHT22;4809;48.224;8.572;2023-04-22T00:55:13;8.80;99.90
9542;DHT22;4809;48.224;8.572;2023-04-22T00:57:40;8.70;99.90
9542;DHT22;4809;48.224;8.572;2023-04-22T01:00:07;8.80;99.90
9542;DHT22;4809;48.224;8.572;2023-04-22T01:02:35;8.80;99.90
9542;DHT22;4809;48.224;8.572;2023-04-22T01:05:02;8.80;99.90
9542;DHT22;4809;48.224;8.572;2023-04-22T01:07:28;8.80;99.90
9542;DHT22;4809;48.224;8.572;2023-04-22T01:09:54;8.80;99.90
9542;DHT22;4809;48.224;8.572;2023-04-22T01:12:19;8.80;99.90
9542;DHT22;4809;48.224;8.572;2023-04-22T01:14:45;8.80;99.90
9542;DHT22;4809;48.224;8.572;2023-04-22T01:17:11;8.80;99.90
9542;DHT22;4809;48.224;8.572;2023-04-22T01:19:38;8.80;99.90
9542;DHT22;4809;48.224;8.572;2023-04-22T01:22:04;8.80;99.90
9542;DHT22;4809;48.224;8.572;2023-04-22T01:24:32;8.80;99.90
9542;DHT22;4809;48.224;8.572;2023-04-22T01:26:58;8.70;99.90
9542;DHT22;4809;48.224;8.572;2023-04-22T01:29:24;8.70;99.90
9542;DHT22;4809;48.224;8.572;2023-04-22T01:31:52;8.70;99.90
9542;DHT22;4809;48.224;8.572;2023-04-22T01:34:18;8.60;99.90
9542;DHT22;4809;48.224;8.572;2023-04-22T01:36:43;8.60;99.90
9542;DHT22;4809;48.224;8.572;2023-04-22T01:39:09;8.50;99.90
9542;DHT22;4809;48.224;8.572;2023-04-22T01:41:35;8.40;99.90
9542;DHT22;4809;48.224;8.572;2023-04-22T01:44:02;8.30;99.90
9542;DHT22;4809;48.224;8.572;2023-04-22T01:46:28;8.30;99.90
9542;DHT22;4809;48.224;8.572;2023-04-22T01:48:53;8.30;99.90
9542;DHT22;4809;48.224;8.572;2023-04-22T01:51:19;8.30;99.90
9542;DHT22;4809;48.224;8.572;2023-04-22T01:53:49;8.30;99.90
9542;DHT22;4809;48.224;8.572;2023-04-22T01:56:15;8.30;99.90
9542;DHT22;4809;48.224;8.572;2023-04-22T01:58:41;8.30;99.90
9542;DHT22;4809;48.224;8.572;2023-04-22T02:01:11;8.30;99.90
9542;DHT22;4809;48.224;8.572;2023-04-22T02:03:37;8.30;99.90
9542;DHT22;4809;48.224;8.572;2023-04-22T02:06:04;8.30;99.90
9542;DHT22;4809;48.224;8.572;2023-04-22T02:08:30;8.30;99.90
9542;DHT22;4809;48.224;8.572;2023-04-22T02:10:56;8.30;99.90
9542;DHT22;4809;48.224;8.572;2023-04-22T02:13:22;8.40;99.90
9542;DHT22;4809;48.224;8.572;2023-04-22T02:15:48;8.30;99.90
9542;DHT22;4809;48.224;8.572;2023-04-22T02:18:14;8.30;99.90
9542;DHT22;4809;48.224;8.572;2023-04-22T02:20:42;8.30;99.90
9542;DHT22;4809;48.224;8.572;2023-04-22T02:23:08;8.20;99.90
9542;DHT22;4809;48.224;8.572;2023-04-22T02:25:34;8.20;99.90
9542;DHT22;4809;48.224;8.572;2023-04-22T02:28:01;8.30;99.90
9542;DHT22;4809;48.224;8.572;2023-04-22T02:30:26;8.30;99.90
9542;DHT22;4809;48.224;8.572;2023-04-22T02:32:52;8.30;99.90
9542;DHT22;4809;48.224;8.572;2023-04-22T02:35:18;8.30;99.90
9542;DHT22;4809;48.224;8.572;2023-04-22T02:37:43;8.30;99.90
9542;DHT22;4809;48.224;8.572;2023-04-22T02:40:09;8.30;99.90
9542;DHT22;4809;48.224;8.572;2023-04-22T02:42:35;8.30;99.90
9542;DHT22;4809;48.224;8.572;2023-04-22T02:45:01;8.30;99.90
9542;DHT22;4809;48.224;8.572;2023-04-22T02:47:26;8.30;99.90
9542;DHT22;4809;48.224;8.572;2023-04-22T02:49:52;8.30;99.90
9542;DHT22;4809;48.224;8.572;2023-04-22T02:52:18;8.30;99.90
9542;DHT22;4809;48.224;8.572;2023-04-22T02:54:43;8.30;99.90
9542;DHT22;4809;48.224;8.572;2023-04-22T02:57:09;8.20;99.90
9542;DHT22;4809;48.224;8.572;2023-04-22T02:59:35;8.20;99.90
9542;DHT22;4809;48.224;8.572;2023-04-22T03:02:01;8.30;99.90
9542;DHT22;4809;48.224;8.572;2023-04-22T03:04:27;8.20;99.90
9542;DHT22;4809;48.224;8.572;2023-04-22T03:06:52;8.20;99.90
9542;DHT22;4809;48.224;8.572;2023-04-22T03:09:18;8.10;99.90
9542;DHT22;4809;48.224;8.572;2023-04-22T03:11:43;8.10;99.90
9542;DHT22;4809;48.224;8.572;2023-04-22T03:14:09;8.10;99.90
9542;DHT22;4809;48.224;8.572;2023-04-22T03:16:35;8.20;99.90
9542;DHT22;4809;48.224;8.572;2023-04-22T03:19:01;8.20;99.90
9542;DHT22;4809;48.224;8.572;2023-04-22T03:21:27;8.10;99.90
9542;DHT22;4809;48.224;8.572;2023-04-22T03:23:53;8.10;99.90
9542;DHT22;4809;48.224;8.572;2023-04-22T03:26:18;8.20;99.90
9542;DHT22;4809;48.224;8.572;2023-04-22T03:28:44;8.10;99.90
9542;DHT22;4809;48.224;8.572;2023-04-22T03:31:10;8.10;99.90
9542;DHT22;4809;48.224;8.572;2023-04-22T03:33:36;8.20;99.90
9542;DHT22;4809;48.224;8.572;2023-04-22T03:36:01;8.10;99.90
9542;DHT22;4809;48.224;8.572;2023-04-22T03:38:27;8.10;99.90
9542;DHT22;4809;48.224;8.572;2023-04-22T03:40:53;8.00;99.90
9542;DHT22;4809;48.224;8.572;2023-04-22T03:43:18;8.00;99.90
9542;DHT22;4809;48.224;8.572;2023-04-22T03:45:44;8.10;99.90
9542;DHT22;4809;48.224;8.572;2023-04-22T03:48:10;8.10;99.90
9542;DHT22;4809;48.224;8.572;2023-04-22T03:50:35;8.10;99.90
9542;DHT22;4809;48.224;8.572;2023-04-22T03:53:01;8.10;99.90
9542;DHT22;4809;48.224;8.572;2023-04-22T03:55:27;8.10;99.90
9542;DHT22;4809;48.224;8.572;2023-04-22T03:57:52;8.10;99.90
9542;DHT22;4809;48.224;8.572;2023-04-22T04:00:18;8.10;99.90
9542;DHT22;4809;48.224;8.572;2023-04-22T04:02:44;8.10;99.90
9542;DHT22;4809;48.224;8.572;2023-04-22T04:05:10;8.20;99.90
9542;DHT22;4809;48.224;8.572;2023-04-22T04:07:36;8.10;99.90
9542;DHT22;4809;48.224;8.572;2023-04-22T04:10:02;8.20;99.90
9542;DHT22;4809;48.224;8.572;2023-04-22T04:12:29;8.10;99.90
9542;DHT22;4809;48.224;8.572;2023-04-22T04:14:54;8.10;99.90
9542;DHT22;4809;48.224;8.572;2023-04-22T04:17:20;8.10;99.90
9542;DHT22;4809;48.224;8.572;2023-04-22T04:19:53;8.10;99.90
9542;DHT22;4809;48.224;8.572;2023-04-22T04:22:19;8.10;99.90
9542;DHT22;4809;48.224;8.572;2023-04-22T04:24:44;8.10;99.90
9542;DHT22;4809;48.224;8.572;2023-04-22T04:27:12;8.10;99.90
9542;DHT22;4809;48.224;8.572;2023-04-22T04:29:38;8.00;99.90
9542;DHT22;4809;48.224;8.572;2023-04-22T04:32:04;8.00;99.90
9542;DHT22;4809;48.224;8.572;2023-04-22T04:34:29;7.90;99.90
9542;DHT22;4809;48.224;8.572;2023-04-22T04:36:59;7.90;99.90
9542;DHT22;4809;48.224;8.572;2023-04-22T04:39:25;7.90;99.90
9542;DHT22;4809;48.224;8.572;2023-04-22T04:41:53;7.90;99.90
9542;DHT22;4809;48.224;8.572;2023-04-22T04:44:20;7.90;99.90
9542;DHT22;4809;48.224;8.572;2023-04-22T04:46:46;7.90;99.90
9542;DHT22;4809;48.224;8.572;2023-04-22T04:49:12;7.90;99.90
9542;DHT22;4809;48.224;8.572;2023-04-22T04:51:38;8.00;99.90
9542;DHT22;4809;48.224;8.572;2023-04-22T04:54:04;8.00;99.90
9542;DHT22;4809;48.224;8.572;2023-04-22T04:56:30;8.00;99.90
9542;DHT22;4809;48.224;8.572;2023-04-22T04:58:56;8.00;99.90
9542;DHT22;4809;48.224;8.572;2023-04-22T05:01:22;8.10;99.90
9542;DHT22;4809;48.224;8.572;2023-04-22T05:03:47;8.10;99.90
9542;DHT22;4809;48.224;8.572;2023-04-22T05:06:13;8.00;99.90
9542;DHT22;4809;48.224;8.572;2023-04-22T05:08:39;8.00;99.90
9542;DHT22;4809;48.224;8.572;2023-04-22T05:11:04;8.00;99.90
9542;DHT22;4809;48.224;8.572;2023-04-22T05:13:30;8.00;99.90
9542;DHT22;4809;48.224;8.572;2023-04-22T05:15:56;8.00;99.90
9542;DHT22;4809;48.224;8.572;2023-04-22T05:18:22;7.90;99.90
9542;DHT22;4809;48.224;8.572;2023-04-22T05:20:47;7.90;99.90
9542;DHT22;4809;48.224;8.572;2023-04-22T05:23:13;7.90;99.90
9542;DHT22;4809;48.224;8.572;2023-04-22T05:25:39;7.90;99.90
9542;DHT22;4809;48.224;8.572;2023-04-22T05:28:04;7.90;99.90
9542;DHT22;4809;48.224;8.572;2023-04-22T05:30:30;8.00;99.90
9542;DHT22;4809;48.224;8.572;2023-04-22T05:32:56;8.00;99.90
9542;DHT22;4809;48.224;8.572;2023-04-22T05:35:21;8.10;99.90
9542;DHT22;4809;48.224;8.572;2023-04-22T05:37:47;8.20;99.90
9542;DHT22;4809;48.224;8.572;2023-04-22T05:40:13;8.20;99.90
9542;DHT22;4809;48.224;8.572;2023-04-22T05:42:38;8.30;99.90
9542;DHT22;4809;48.224;8.572;2023-04-22T05:45:04;8.30;99.90
9542;DHT22;4809;48.224;8.572;2023-04-22T05:47:30;8.30;99.90
9542;DHT22;4809;48.224;8.572;2023-04-22T05:49:56;8.40;99.90
9542;DHT22;4809;48.224;8.572;2023-04-22T05:52:21;8.40;99.90
9542;DHT22;4809;48.224;8.572;2023-04-22T05:54:47;8.50;99.90
9542;DHT22;4809;48.224;8.572;2023-04-22T05:57:12;8.50;99.90
9542;DHT22;4809;48.224;8.572;2023-04-22T05:59:38;8.50;99.90
9542;DHT22;4809;48.224;8.572;2023-04-22T06:02:04;8.50;99.90
9542;DHT22;4809;48.224;8.572;2023-04-22T06:04:29;8.50;99.90
9542;DHT22;4809;48.224;8.572;2023-04-22T06:06:55;8.60;99.90
9542;DHT22;4809;48.224;8.572;2023-04-22T06:09:21;8.60;99.90
9542;DHT22;4809;48.224;8.572;2023-04-22T06:11:47;8.70;99.90
9542;DHT22;4809;48.224;8.572;2023-04-22T06:14:13;8.70;99.90
9542;DHT22;4809;48.224;8.572;2023-04-22T06:16:39;8.80;99.90
9542;DHT22;4809;48.224;8.572;2023-04-22T06:19:05;8.80;99.90
9542;DHT22;4809;48.224;8.572;2023-04-22T06:21:31;8.90;99.90
9542;DHT22;4809;48.224;8.572;2023-04-22T06:24:01;9.00;99.90
9542;DHT22;4809;48.224;8.572;2023-04-22T06:26:28;9.00;99.90
9542;DHT22;4809;48.224;8.572;2023-04-22T06:28:54;9.00;99.90
9542;DHT22;4809;48.224;8.572;2023-04-22T06:31:20;9.00;99.90
9542;DHT22;4809;48.224;8.572;2023-04-22T06:33:45;9.00;99.90
9542;DHT22;4809;48.224;8.572;2023-04-22T06:36:12;9.00;99.90
9542;DHT22;4809;48.224;8.572;2023-04-22T06:38:38;9.00;99.90
9542;DHT22;4809;48.224;8.572;2023-04-22T06:41:04;9.00;99.90
9542;DHT22;4809;48.224;8.572;2023-04-22T06:43:29;9.00;99.90
9542;DHT22;4809;48.224;8.572;2023-04-22T06:45:55;9.10;99.90
9542;DHT22;4809;48.224;8.572;2023-04-22T06:48:21;9.20;99.90
9542;DHT22;4809;48.224;8.572;2023-04-22T06:50:47;9.30;99.90
9542;DHT22;4809;48.224;8.572;2023-04-22T06:53:12;9.40;99.90
9542;DHT22;4809;48.224;8.572;2023-04-22T06:55:38;9.40;99.90
9542;DHT22;4809;48.224;8.572;2023-04-22T06:58:04;9.50;99.90
9542;DHT22;4809;48.224;8.572;2023-04-22T07:00:29;9.50;99.90
9542;DHT22;4809;48.224;8.572;2023-04-22T07:02:55;9.60;99.90
9542;DHT22;4809;48.224;8.572;2023-04-22T07:05:21;9.60;99.90
9542;DHT22;4809;48.224;8.572;2023-04-22T07:07:46;9.90;99.90
9542;DHT22;4809;48.224;8.572;2023-04-22T07:10:12;10.10;99.90
9542;DHT22;4809;48.224;8.572;2023-04-22T07:12:39;10.40;99.90
9542;DHT22;4809;48.224;8.572;2023-04-22T07:15:05;10.70;99.90
9542;DHT22;4809;48.224;8.572;2023-04-22T07:17:32;11.10;99.90
9542;DHT22;4809;48.224;8.572;2023-04-22T07:19:57;11.60;99.90
9542;DHT22;4809;48.224;8.572;2023-04-22T07:22:23;12.20;99.90
9542;DHT22;4809;48.224;8.572;2023-04-22T07:24:49;12.60;99.90
9542;DHT22;4809;48.224;8.572;2023-04-22T07:27:14;13.00;99.90
9542;DHT22;4809;48.224;8.572;2023-04-22T07:29:40;13.50;99.90
9542;DHT22;4809;48.224;8.572;2023-04-22T07:32:06;13.90;99.90
9542;DHT22;4809;48.224;8.572;2023-04-22T07:34:32;14.10;99.90
9542;DHT22;4809;48.224;8.572;2023-04-22T07:36:58;13.90;99.90
9542;DHT22;4809;48.224;8.572;2023-04-22T07:39:23;13.80;99.90
9542;DHT22;4809;48.224;8.572;2023-04-22T07:41:50;13.80;99.90
9542;DHT22;4809;48.224;8.572;2023-04-22T07:44:15;13.80;99.90
9542;DHT22;4809;48.224;8.572;2023-04-22T07:46:46;14.00;99.90
9542;DHT22;4809;48.224;8.572;2023-04-22T07:49:12;14.10;99.90
9542;DHT22;4809;48.224;8.572;2023-04-22T07:51:39;14.20;99.90
9542;DHT22;4809;48.224;8.572;2023-04-22T07:54:04;14.40;99.90
9542;DHT22;4809;48.224;8.572;2023-04-22T07:56:30;14.50;99.90
9542;DHT22;4809;48.224;8.572;2023-04-22T07:58:56;14.50;99.90
9542;DHT22;4809;48.224;8.572;2023-04-22T08:01:21;14.50;99.90
9542;DHT22;4809;48.224;8.572;2023-04-22T08:03:47;14.50;99.90
9542;DHT22;4809;48.224;8.572;2023-04-22T08:06:13;14.60;99.90
9542;DHT22;4809;48.224;8.572;2023-04-22T08:08:38;14.60;99.90
9542;DHT22;4809;48.224;8.572;2023-04-22T08:11:04;14.70;99.90
9542;DHT22;4809;48.224;8.572;2023-04-22T08:13:30;14.70;99.90
9542;DHT22;4809;48.224;8.572;2023-04-22T08:15:56;14.70;99.90
9542;DHT22;4809;48.224;8.572;2023-04-22T08:18:21;14.80;99.90
9542;DHT22;4809;48.224;8.572;2023-04-22T08:20:47;14.80;99.90
9542;DHT22;4809;48.224;8.572;2023-04-22T08:23:12;14.70;99.90
9542;DHT22;4809;48.224;8.572;2023-04-22T08:25:38;14.90;99.90
9542;DHT22;4809;48.224;8.572;2023-04-22T08:28:04;15.00;99.90
9542;DHT22;4809;48.224;8.572;2023-04-22T08:30:30;15.30;99.90
9542;DHT22;4809;48.224;8.572;2023-04-22T08:32:55;15.40;99.90
9542;DHT22;4809;48.224;8.572;2023-04-22T08:35:21;15.60;99.90
9542;DHT22;4809;48.224;8.572;2023-04-22T08:37:47;15.70;99.90
9542;DHT22;4809;48.224;8.572;2023-04-22T08:40:12;15.90;99.90
9542;DHT22;4809;48.224;8.572;2023-04-22T08:42:39;16.10;97.70
9542;DHT22;4809;48.224;8.572;2023-04-22T08:45:05;16.20;99.20
9542;DHT22;4809;48.224;8.572;2023-04-22T08:47:31;16.30;98.50
9542;DHT22;4809;48.224;8.572;2023-04-22T08:49:58;16.40;97.80
9542;DHT22;4809;48.224;8.572;2023-04-22T08:52:26;16.70;95.80
9542;DHT22;4809;48.224;8.572;2023-04-22T08:54:51;16.80;94.40
9542;DHT22;4809;48.224;8.572;2023-04-22T08:57:17;16.90;93.60
9542;DHT22;4809;48.224;8.572;2023-04-22T08:59:44;17.00;90.30
9542;DHT22;4809;48.224;8.572;2023-04-22T09:02:18;17.20;91.10
9542;DHT22;4809;48.224;8.572;2023-04-22T09:04:47;17.40;86.50
9542;DHT22;4809;48.224;8.572;2023-04-22T09:07:19;17.50;87.90
9542;DHT22;4809;48.224;8.572;2023-04-22T09:09:46;17.60;89.50
9542;DHT22;4809;48.224;8.572;2023-04-22T09:12:12;17.90;85.60
9542;DHT22;4809;48.224;8.572;2023-04-22T09:14:38;18.40;83.20
9542;DHT22;4809;48.224;8.572;2023-04-22T09:17:04;18.80;79.80
9542;DHT22;4809;48.224;8.572;2023-04-22T09:19:29;18.90;75.10
9542;DHT22;4809;48.224;8.572;2023-04-22T09:21:58;19.10;76.10
9542;DHT22;4809;48.224;8.572;2023-04-22T09:24:24;19.20;66.40
9542;DHT22;4809;48.224;8.572;2023-04-22T09:26:50;19.30;64.20
9542;DHT22;4809;48.224;8.572;2023-04-22T09:29:15;19.50;65.00
9542;DHT22;4809;48.224;8.572;2023-04-22T09:31:47;19.50;64.50
9542;DHT22;4809;48.224;8.572;2023-04-22T09:34:14;19.60;65.00
9542;DHT22;4809;48.224;8.572;2023-04-22T09:36:42;20.00;62.00
9542;DHT22;4809;48.224;8.572;2023-04-22T09:39:08;20.10;57.70
9542;DHT22;4809;48.224;8.572;2023-04-22T09:41:36;20.10;56.60
9542;DHT22;4809;48.224;8.572;2023-04-22T09:44:04;20.10;59.90
9542;DHT22;4809;48.224;8.572;2023-04-22T09:46:30;20.10;62.30
9542;DHT22;4809;48.224;8.572;2023-04-22T09:48:58;20.20;59.30
9542;DHT22;4809;48.224;8.572;2023-04-22T09:51:24;20.00;57.20
9542;DHT22;4809;48.224;8.572;2023-04-22T09:54:05;19.80;57.80
9542;DHT22;4809;48.224;8.572;2023-04-22T09:56:47;19.70;56.30
9542;DHT22;4809;48.224;8.572;2023-04-22T09:59:24;19.70;56.90
9542;DHT22;4809;48.224;8.572;2023-04-22T10:02:00;19.80;57.20
9542;DHT22;4809;48.224;8.572;2023-04-22T10:04:29;20.20;58.30
9542;DHT22;4809;48.224;8.572;2023-04-22T10:06:55;20.40;55.90
9542;DHT22;4809;48.224;8.572;2023-04-22T10:09:23;20.50;55.90
9542;DHT22;4809;48.224;8.572;2023-04-22T10:11:53;20.40;56.70
9542;DHT22;4809;48.224;8.572;2023-04-22T10:14:20;20.40;59.00
9542;DHT22;4809;48.224;8.572;2023-04-22T10:16:47;20.60;57.10
9542;DHT22;4809;48.224;8.572;2023-04-22T10:19:18;20.70;58.90
9542;DHT22;4809;48.224;8.572;2023-04-22T10:21:45;20.80;56.70
9542;DHT22;4809;48.224;8.572;2023-04-22T10:24:16;21.10;55.10
9542;DHT22;4809;48.224;8.572;2023-04-22T10:26:52;21.30;57.30
9542;DHT22;4809;48.224;8.572;2023-04-22T10:29:20;21.20;56.30
9542;DHT22;4809;48.224;8.572;2023-04-22T10:31:55;21.30;58.00
9542;DHT22;4809;48.224;8.572;2023-04-22T10:34:29;21.60;54.50
9542;DHT22;4809;48.224;8.572;2023-04-22T10:39:25;21.70;50.70
9542;DHT22;4809;48.224;8.572;2023-04-22T10:41:54;21.40;52.10
9542;DHT22;4809;48.224;8.572;2023-04-22T10:44:20;21.30;53.50
9542;DHT22;4809;48.224;8.572;2023-04-22T10:49:24;21.30;52.20
9542;DHT22;4809;48.224;8.572;2023-04-22T10:51:54;21.30;52.40
9542;DHT22;4809;48.224;8.572;2023-04-22T10:57:06;21.50;51.40
9542;DHT22;4809;48.224;8.572;2023-04-22T10:59:35;22.00;52.90
9542;DHT22;4809;48.224;8.572;2023-04-22T11:02:06;22.60;48.20
9542;DHT22;4809;48.224;8.572;2023-04-22T11:04:33;22.90;47.20
9542;DHT22;4809;48.224;8.572;2023-04-22T11:09:42;23.10;45.90
9542;DHT22;4809;48.224;8.572;2023-04-22T11:15:11;23.40;48.10
9542;DHT22;4809;48.224;8.572;2023-04-22T11:17:39;23.30;48.50
9542;DHT22;4809;48.224;8.572;2023-04-22T11:20:07;23.10;47.00
9542;DHT22;4809;48.224;8.572;2023-04-22T11:22:53;23.20;47.80
9542;DHT22;4809;48.224;8.572;2023-04-22T11:25:20;23.30;45.00
9542;DHT22;4809;48.224;8.572;2023-04-22T11:27:46;23.10;47.30
9542;DHT22;4809;48.224;8.572;2023-04-22T11:30:14;22.90;43.80
9542;DHT22;4809;48.224;8.572;2023-04-22T11:32:59;22.80;43.30
9542;DHT22;4809;48.224;8.572;2023-04-22T11:35:27;22.40;44.50
9542;DHT22;4809;48.224;8.572;2023-04-22T11:38:02;22.10;43.70
9542;DHT22;4809;48.224;8.572;2023-04-22T11:40:29;21.80;45.30
9542;DHT22;4809;48.224;8.572;2023-04-22T11:42:56;22.10;47.00
9542;DHT22;4809;48.224;8.572;2023-04-22T11:45:22;22.30;42.70
9542;DHT22;4809;48.224;8.572;2023-04-22T11:47:50;22.10;43.30
9542;DHT22;4809;48.224;8.572;2023-04-22T11:50:17;22.00;45.00
9542;DHT22;4809;48.224;8.572;2023-04-22T11:55:37;21.90;44.00
9542;DHT22;4809;48.224;8.572;2023-04-22T12:00:41;21.30;45.90
9542;DHT22;4809;48.224;8.572;2023-04-22T12:05:42;21.20;45.30
9542;DHT22;4809;48.224;8.572;2023-04-22T12:08:14;21.00;45.60
9542;DHT22;4809;48.224;8.572;2023-04-22T12:10:49;20.80;46.70
9542;DHT22;4809;48.224;8.572;2023-04-22T12:15:55;20.70;49.80
9542;DHT22;4809;48.224;8.572;2023-04-22T12:18:36;20.80;48.20
9542;DHT22;4809;48.224;8.572;2023-04-22T12:21:12;20.90;45.50
9542;DHT22;4809;48.224;8.572;2023-04-22T12:23:51;20.60;47.90
9542;DHT22;4809;48.224;8.572;2023-04-22T12:26:20;20.60;48.40
9542;DHT22;4809;48.224;8.572;2023-04-22T12:28:46;20.50;47.40
9542;DHT22;4809;48.224;8.572;2023-04-22T12:31:13;20.40;50.00
9542;DHT22;4809;48.224;8.572;2023-04-22T12:33:39;20.40;48.40
9542;DHT22;4809;48.224;8.572;2023-04-22T12:36:06;20.20;48.00
9542;DHT22;4809;48.224;8.572;2023-04-22T12:38:32;20.00;47.40
9542;DHT22;4809;48.224;8.572;2023-04-22T12:40:58;19.80;48.60
9542;DHT22;4809;48.224;8.572;2023-04-22T12:43:24;19.70;50.10
9542;DHT22;4809;48.224;8.572;2023-04-22T12:45:49;19.50;50.50
9542;DHT22;4809;48.224;8.572;2023-04-22T12:48:15;19.50;51.40
9542;DHT22;4809;48.224;8.572;2023-04-22T12:50:41;19.50;52.10
9542;DHT22;4809;48.224;8.572;2023-04-22T12:53:07;19.60;52.60
9542;DHT22;4809;48.224;8.572;2023-04-22T12:55:33;19.70;50.30
9542;DHT22;4809;48.224;8.572;2023-04-22T12:57:59;19.90;52.50
9542;DHT22;4809;48.224;8.572;2023-04-22T13:00:25;20.00;53.60
9542;DHT22;4809;48.224;8.572;2023-04-22T13:02:51;20.00;50.90
9542;DHT22;4809;48.224;8.572;2023-04-22T13:05:17;19.70;51.10
9542;DHT22;4809;48.224;8.572;2023-04-22T13:07:44;19.40;53.00
9542;DHT22;4809;48.224;8.572;2023-04-22T13:10:12;19.20;53.20
9542;DHT22;4809;48.224;8.572;2023-04-22T13:12:38;19.00;53.00
9542;DHT22;4809;48.224;8.572;2023-04-22T13:15:04;18.70;55.00
9542;DHT22;4809;48.224;8.572;2023-04-22T13:17:31;18.50;54.60
9542;DHT22;4809;48.224;8.572;2023-04-22T13:19:57;18.40;55.20
9542;DHT22;4809;48.224;8.572;2023-04-22T13:22:23;18.30;57.70
9542;DHT22;4809;48.224;8.572;2023-04-22T13:24:48;18.10;56.60
9542;DHT22;4809;48.224;8.572;2023-04-22T13:27:14;18.10;57.70
9542;DHT22;4809;48.224;8.572;2023-04-22T13:29:41;18.10;56.80
9542;DHT22;4809;48.224;8.572;2023-04-22T13:32:07;18.10;56.00
9542;DHT22;4809;48.224;8.572;2023-04-22T13:34:33;18.10;57.30
9542;DHT22;4809;48.224;8.572;2023-04-22T13:36:58;18.20;58.00
9542;DHT22;4809;48.224;8.572;2023-04-22T13:39:24;18.20;56.80
9542;DHT22;4809;48.224;8.572;2023-04-22T13:41:51;18.20;57.20
9542;DHT22;4809;48.224;8.572;2023-04-22T13:44:16;18.10;58.00
9542;DHT22;4809;48.224;8.572;2023-04-22T13:46:42;18.20;58.80
9542;DHT22;4809;48.224;8.572;2023-04-22T13:49:08;18.10;57.20
9542;DHT22;4809;48.224;8.572;2023-04-22T13:51:34;18.10;59.80
9542;DHT22;4809;48.224;8.572;2023-04-22T13:54:02;18.00;60.20
9542;DHT22;4809;48.224;8.572;2023-04-22T13:56:28;18.00;61.90
9542;DHT22;4809;48.224;8.572;2023-04-22T13:58:54;18.10;58.40
9542;DHT22;4809;48.224;8.572;2023-04-22T14:01:20;18.10;58.90
9542;DHT22;4809;48.224;8.572;2023-04-22T14:03:46;18.20;60.10
9542;DHT22;4809;48.224;8.572;2023-04-22T14:06:13;18.30;59.60
9542;DHT22;4809;48.224;8.572;2023-04-22T14:08:39;18.50;59.40
9542;DHT22;4809;48.224;8.572;2023-04-22T14:11:05;18.80;59.80
9542;DHT22;4809;48.224;8.572;2023-04-22T14:13:31;19.10;57.70
9542;DHT22;4809;48.224;8.572;2023-04-22T14:15:57;19.30;58.60
9542;DHT22;4809;48.224;8.572;2023-04-22T14:18:23;19.50;59.00
9542;DHT22;4809;48.224;8.572;2023-04-22T14:20:50;19.70;57.70
9542;DHT22;4809;48.224;8.572;2023-04-22T14:23:17;19.90;57.10
9542;DHT22;4809;48.224;8.572;2023-04-22T14:25:46;19.80;57.10
9542;DHT22;4809;48.224;8.572;2023-04-22T14:28:13;19.60;57.30
9542;DHT22;4809;48.224;8.572;2023-04-22T14:30:40;19.60;57.80
9542;DHT22;4809;48.224;8.572;2023-04-22T14:33:07;19.50;58.40
9542;DHT22;4809;48.224;8.572;2023-04-22T14:35:39;19.70;59.50
9542;DHT22;4809;48.224;8.572;2023-04-22T14:38:08;19.70;58.90
9542;DHT22;4809;48.224;8.572;2023-04-22T14:40:34;19.70;56.90
9542;DHT22;4809;48.224;8.572;2023-04-22T14:43:02;19.90;57.60
9542;DHT22;4809;48.224;8.572;2023-04-22T14:45:29;19.80;56.80
9542;DHT22;4809;48.224;8.572;2023-04-22T14:47:57;19.70;56.70
9542;DHT22;4809;48.224;8.572;2023-04-22T14:50:22;19.50;57.00
9542;DHT22;4809;48.224;8.572;2023-04-22T14:52:49;19.30;57.10
9542;DHT22;4809;48.224;8.572;2023-04-22T14:55:15;19.20;59.30
9542;DHT22;4809;48.224;8.572;2023-04-22T14:57:41;18.90;57.20
9542;DHT22;4809;48.224;8.572;2023-04-22T15:00:07;18.90;58.30
9542;DHT22;4809;48.224;8.572;2023-04-22T15:02:33;18.80;58.10
9542;DHT22;4809;48.224;8.572;2023-04-22T15:04:59;18.70;58.40
9542;DHT22;4809;48.224;8.572;2023-04-22T15:07:25;18.70;58.50
9542;DHT22;4809;48.224;8.572;2023-04-22T15:09:51;18.60;60.30
9542;DHT22;4809;48.224;8.572;2023-04-22T15:12:17;18.60;59.40
9542;DHT22;4809;48.224;8.572;2023-04-22T15:14:43;18.60;60.40
9542;DHT22;4809;48.224;8.572;2023-04-22T15:17:09;18.70;61.60
9542;DHT22;4809;48.224;8.572;2023-04-22T15:19:35;18.80;62.20
9542;DHT22;4809;48.224;8.572;2023-04-22T15:22:01;18.70;61.90
9542;DHT22;4809;48.224;8.572;2023-04-22T15:24:27;18.80;59.90
9542;DHT22;4809;48.224;8.572;2023-04-22T15:26:56;18.70;58.70
9542;DHT22;4809;48.224;8.572;2023-04-22T15:29:22;18.60;60.30
9542;DHT22;4809;48.224;8.572;2023-04-22T15:31:48;18.40;60.70
9542;DHT22;4809;48.224;8.572;2023-04-22T15:34:13;18.40;61.70
9542;DHT22;4809;48.224;8.572;2023-04-22T15:36:39;18.30;61.30
9542;DHT22;4809;48.224;8.572;2023-04-22T15:39:05;18.20;61.00
9542;DHT22;4809;48.224;8.572;2023-04-22T15:41:31;18.00;62.40
9542;DHT22;4809;48.224;8.572;2023-04-22T15:44:00;17.90;64.20
9542;DHT22;4809;48.224;8.572;2023-04-22T15:46:30;17.80;63.60
9542;DHT22;4809;48.224;8.572;2023-04-22T15:48:58;17.60;63.90
9542;DHT22;4809;48.224;8.572;2023-04-22T15:51:24;17.50;65.60
9542;DHT22;4809;48.224;8.572;2023-04-22T15:53:52;17.50;64.50
9542;DHT22;4809;48.224;8.572;2023-04-22T15:56:18;17.40;67.10
9542;DHT22;4809;48.224;8.572;2023-04-22T15:58:44;17.30;67.90
9542;DHT22;4809;48.224;8.572;2023-04-22T16:01:10;17.20;68.30
9542;DHT22;4809;48.224;8.572;2023-04-22T16:03:36;17.20;68.40
9542;DHT22;4809;48.224;8.572;2023-04-22T16:06:02;17.20;70.90
9542;DHT22;4809;48.224;8.572;2023-04-22T16:08:27;17.10;72.50
9542;DHT22;4809;48.224;8.572;2023-04-22T16:10:53;17.10;71.20
9542;DHT22;4809;48.224;8.572;2023-04-22T16:13:19;17.10;71.90
9542;DHT22;4809;48.224;8.572;2023-04-22T16:15:45;17.10;72.70
9542;DHT22;4809;48.224;8.572;2023-04-22T16:18:14;17.00;74.60
9542;DHT22;4809;48.224;8.572;2023-04-22T16:20:40;16.90;76.10
9542;DHT22;4809;48.224;8.572;2023-04-22T16:23:06;16.90;76.20
9542;DHT22;4809;48.224;8.572;2023-04-22T16:25:31;16.80;80.10
9542;DHT22;4809;48.224;8.572;2023-04-22T16:27:57;16.70;80.40
9542;DHT22;4809;48.224;8.572;2023-04-22T16:30:23;16.60;81.70